WetterOnline ( https://www.wetteronline.de )

Wetter aktuell Gera

Aktuelles Wetter: Gera/Leumnitz (311m)

6-stündlich | Neueste Meldungen
Ortszeit Temperatur Wetter
Fr, 23.02. 1:00 11.0° C bewölkt
Do, 22.02. 19:00 10.6° C bewölkt
Do, 22.02. 13:00 10.5° C bedeckt
Do, 22.02. 7:00 7.5° C leichter Regen
Do, 22.02. 1:00 9.2° C leichter Regen
Mi, 21.02. 19:00 7.8° C bedeckt
Mi, 21.02. 13:00 9.8° C leicht bewölkt
Mi, 21.02. 7:00 5.8° C bewölkt
Ortszeit Temperatur Wetter
Fr, 23.02. 1:00 11.0° C bewölkt
Fr, 23.02. 0:50 11.0° C Sprühregen
Fr, 23.02. 0:40 10.6° C bedeckt
Fr, 23.02. 0:30 11.0° C bewölkt
Fr, 23.02. 0:20 11.0° C bewölkt
Fr, 23.02. 0:10 11.0° C bedeckt
Fr, 23.02. 0:00 10.8° C wolkig
Do, 22.02. 23:30 10.8° C wolkig
Do, 22.02. 23:00 10.5° C bedeckt
Do, 22.02. 22:30 10.7° C wolkig
Do, 22.02. 22:00 10.6° C bewölkt
Ortszeit Relative Feuchte Sichtweite
Fr, 23.02. 1:00 68% 65 km
Do, 22.02. 19:00 79% >70 km
Do, 22.02. 13:00 78% >70 km
Do, 22.02. 7:00 88% 29 km
Do, 22.02. 1:00 59% 60 km
Mi, 21.02. 19:00 71% 50 km
Mi, 21.02. 13:00 67% 50 km
Mi, 21.02. 7:00 84% 28 km
Ortszeit Relative Feuchte Sichtweite
Fr, 23.02. 1:00 68% 65 km
Fr, 23.02. 0:50 68% -
Fr, 23.02. 0:40 72% -
Fr, 23.02. 0:30 72% >70 km
Fr, 23.02. 0:20 72% -
Fr, 23.02. 0:10 72% -
Fr, 23.02. 0:00 74% >70 km
Do, 22.02. 23:30 75% >70 km
Do, 22.02. 23:00 77% 65 km
Do, 22.02. 22:30 77% >70 km
Do, 22.02. 22:00 78% >70 km
Ortszeit Niederschlagsmenge Niederschlagsart
Fr, 23.02. 1:00 0.1 l/m2 in 6 Std. Regen
Do, 22.02. 19:00 0.4 l/m2 in 12 Std. Regen
Do, 22.02. 13:00 0.4 l/m2 in 6 Std. Regen
Do, 22.02. 7:00 0.7 l/m2 in 12 Std. Regen
Do, 22.02. 1:00 0.1 l/m2 in 6 Std. Regen
Mi, 21.02. 19:00 0.1 l/m2 in 12 Std. -
Mi, 21.02. 13:00 0.1 l/m2 in 6 Std. Regen
Mi, 21.02. 7:00 0.8 l/m2 in 12 Std. Regen
Ortszeit Niederschlagsmenge Niederschlagsart
Fr, 23.02. 1:00 <0.05 l/m2 in 1 Std. Regen
Fr, 23.02. 0:50 keine Meldung -
Fr, 23.02. 0:40 keine Meldung -
Fr, 23.02. 0:30 0.0 l/m2 in 30 Min -
Fr, 23.02. 0:20 keine Meldung -
Fr, 23.02. 0:10 keine Meldung -
Fr, 23.02. 0:00 0.0 l/m2 in 1 Std. -
Do, 22.02. 23:30 0.0 l/m2 in 30 Min -
Do, 22.02. 23:00 0.0 l/m2 in 1 Std. -
Do, 22.02. 22:30 0.0 l/m2 in 30 Min -
Do, 22.02. 22:00 0.0 l/m2 in 1 Std. Regen
Ortszeit Stärke Spitze Richtung
km/h Bft. km/h Grad Sektor
Fr, 23.02. 1:00 37 5 69 240° SW
Do, 22.02. 19:00 28 4 52 210° SW
Do, 22.02. 13:00 33 5 48 230° SW
Do, 22.02. 7:00 25 4 54 220° SW
Do, 22.02. 1:00 24 4 39 200° S
Mi, 21.02. 19:00 24 4 41 190° S
Mi, 21.02. 13:00 22 4 39 220° SW
Mi, 21.02. 7:00 25 4 32 220° SW
Ortszeit Stärke Spitze Richtung
km/h Bft. km/h Grad Sektor
Fr, 23.02. 1:00 37 5 59 240° SW
Fr, 23.02. 0:50 37 5 - 240° SW
Fr, 23.02. 0:40 35 5 - 230° SW
Fr, 23.02. 0:30 32 5 54 230° SW
Fr, 23.02. 0:20 32 5 - 230° SW
Fr, 23.02. 0:10 36 5 - 230° SW
Fr, 23.02. 0:00 33 5 59 220° SW
Do, 22.02. 23:30 36 5 61 220° SW
Do, 22.02. 23:00 46 6 69 210° SW
Do, 22.02. 22:30 40 6 61 210° SW
Do, 22.02. 22:00 35 5 54 210° SW
Ortszeit Untergrenze Bedeckung Gattung
total tief tief mittel hoch
Fr, 23.02. 1:00 1260 m 8/8 5/8 - - -
Do, 22.02. 19:00 750 m 7/8 7/8 - - -
Do, 22.02. 13:00 630 m 8/8 8/8 - - -
Do, 22.02. 7:00 1230 m 8/8 8/8 - - -
Do, 22.02. 1:00 1500 m 7/8 7/8 - - -
Mi, 21.02. 19:00 2700 m 8/8 8/8 - - -
Mi, 21.02. 13:00 8100 m 7/8 0/8 - - -
Mi, 21.02. 7:00 1500 m 8/8 7/8 - - -
Ortszeit Bedeckungsgrad in Achtel und Wolkenuntergrenze
Fr, 23.02. 1:00 5(1260m) 8(7500m) 8(9000m)
Fr, 23.02. 0:50 5(1260m) 8(7500m) 8(9000m)
Fr, 23.02. 0:40 8
Fr, 23.02. 0:30 2(900m) 7(1500m) 8(7200m)
Fr, 23.02. 0:20 2(900m) 7(1500m) 8(7200m)
Fr, 23.02. 0:10 8
Fr, 23.02. 0:00 3(5700m) 8(7500m) 8(9000m)
Do, 22.02. 23:30 3(1050m) 8(7800m) 8(9000m)
Do, 22.02. 23:00 8(4800m) 8(6300m)
Do, 22.02. 22:30 1(930m) 8(4200m) 8(6000m)
Do, 22.02. 22:00 1(900m) 7(1200m)
Ortszeit Luftdruck NN (hPa) Tendenz (hPa in 3 Std.)
Fr, 23.02. 1:00 988 + 0,3
Do, 22.02. 19:00 990 - 2,5
Do, 22.02. 13:00 995 - 2,6
Do, 22.02. 7:00 1000 - 2,9
Do, 22.02. 1:00 1007 - 3,2
Mi, 21.02. 19:00 1013 - 3,2
Mi, 21.02. 13:00 1018 - 2,1
Mi, 21.02. 7:00 1021 - 1,5
Ortszeit Luftdruck NN (hPa) Tendenz (hPa in 3 Std.)
Fr, 23.02. 1:00 988 + 0,3
Fr, 23.02. 0:50 988 keine Meldung
Fr, 23.02. 0:40 988 keine Meldung
Fr, 23.02. 0:30 988 - 0,2
Fr, 23.02. 0:20 988 keine Meldung
Fr, 23.02. 0:10 988 keine Meldung
Fr, 23.02. 0:00 987 - 0,8
Do, 22.02. 23:30 987 - 1,2
Do, 22.02. 23:00 987 - 2,0
Do, 22.02. 22:30 987 - 2,0
Do, 22.02. 22:00 988 - 1,6
Ortszeit Schneehöhe (cm)
Fr, 23.02. 1:00 0
Do, 22.02. 19:00 0
Do, 22.02. 13:00 0
Do, 22.02. 7:00 0
Do, 22.02. 1:00 0
Mi, 21.02. 19:00 0
Mi, 21.02. 13:00 0
Mi, 21.02. 7:00 0
Ortszeit Schneehöhe (cm)
Fr, 23.02. 1:00 0
Fr, 23.02. 0:50 0
Fr, 23.02. 0:40 -
Fr, 23.02. 0:30 0
Fr, 23.02. 0:20 0
Fr, 23.02. 0:10 -
Fr, 23.02. 0:00 0
Do, 22.02. 23:30 0
Do, 22.02. 23:00 0
Do, 22.02. 22:30 0
Do, 22.02. 22:00 0
Link zu dieser Seite / Seite empfehlen

Das Wetter in ...